GTF weather

Great Falls International Airport
Great Falls, Montana, United States

Public forecast

Using degrees Fahrenheit for public forecast. Weather courtesy of forecast.io.

METAR (pilot weather report)

Retrieved 2019/03/23 13:53 UTC (16 minutes ago):

KGTF 231353Z 22013KT 10SM CLR 03/M01 A2991 RMK AO2 SLP154 T00331006

TAF (pilot weather forecast)

Retrieved 2019/03/23 12:42 UTC (1 hour ago):

TAF KGTF 231141Z 2312/2412 22012KT P6SM SCT200 FM232100 26008KT P6SM BKN150 FM240900 VRB04KT P6SM SCT005 OVC025